Time;durP1;ratioP1;P1;durP2;ratioP2;P2;SDS_P1;SDS_P2;PMS_P1;PMS_P2;Temp;Humidity;BMP_temperature;BMP_pressure;BME280_temperature;BME280_humidity;BME280_pressure;Samples;Min_cycle;Max_cycle;Signal;HPM_P1;HPM_P2
2023/03/06 00:00:16;;;;;;;429.60;161.70;;;-0.50;99.90;;;;;;5037163;28;20079;-64
2023/03/06 00:02:43;;;;;;;479.95;176.13;;;-0.50;99.90;;;;;;5037253;28;20040;-64
2023/03/06 00:05:09;;;;;;;626.03;233.32;;;-0.50;99.90;;;;;;5037039;28;20025;-64
2023/03/06 00:07:35;;;;;;;697.78;273.10;;;-0.50;99.90;;;;;;5037286;28;20048;-64
2023/03/06 00:10:00;;;;;;;532.47;201.63;;;-0.50;99.90;;;;;;5037083;28;20361;-63
2023/03/06 00:12:26;;;;;;;474.40;176.00;;;-0.60;99.90;;;;;;5036950;28;20033;-64
2023/03/06 00:14:52;;;;;;;531.95;198.50;;;-0.60;99.90;;;;;;5036950;28;20564;-64
2023/03/06 00:17:18;;;;;;;348.30;138.48;;;-0.60;99.90;;;;;;5037024;28;20030;-63
2023/03/06 00:19:44;;;;;;;486.17;178.90;;;-0.80;99.90;;;;;;5036795;28;20109;-64
2023/03/06 00:22:14;;;;;;;381.23;151.90;;;-0.70;99.90;;;;;;5019056;28;20030;-63
2023/03/06 00:24:41;;;;;;;351.50;141.30;;;-0.70;99.90;;;;;;5036791;28;20060;-64
2023/03/06 00:27:09;;;;;;;331.77;136.80;;;-0.60;99.90;;;;;;5036563;28;20041;-64
2023/03/06 00:29:35;;;;;;;303.02;131.63;;;-0.50;99.90;;;;;;5036684;28;20029;-64
2023/03/06 00:32:01;;;;;;;320.48;133.00;;;-0.50;99.90;;;;;;5036494;28;20025;-64
2023/03/06 00:34:27;;;;;;;350.70;139.40;;;-0.40;99.90;;;;;;5036501;28;20447;-63
2023/03/06 00:36:53;;;;;;;334.55;137.00;;;-0.50;99.90;;;;;;5036531;28;20028;-64
2023/03/06 00:39:19;;;;;;;338.27;132.80;;;-0.50;99.90;;;;;;5040586;28;20029;-64
2023/03/06 00:41:45;;;;;;;317.55;131.30;;;-0.60;99.90;;;;;;5015257;28;20052;-64
2023/03/06 00:44:11;;;;;;;336.60;139.38;;;-0.60;99.90;;;;;;5016602;28;20116;-63
2023/03/06 00:46:37;;;;;;;336.33;137.35;;;-0.70;99.90;;;;;;5016541;28;20653;-63
2023/03/06 00:49:03;;;;;;;342.33;146.27;;;-0.70;99.90;;;;;;5015219;28;20045;-63
2023/03/06 00:51:29;;;;;;;415.85;162.88;;;-0.80;99.90;;;;;;5016459;28;20026;-64
2023/03/06 00:53:55;;;;;;;1131.78;439.67;;;-0.80;99.90;;;;;;5016289;28;20113;-64
2023/03/06 00:56:21;;;;;;;700.50;271.15;;;-0.80;99.90;;;;;;5015030;28;20479;-64
2023/03/06 00:58:47;;;;;;;345.48;135.75;;;-0.80;99.90;;;;;;5014980;28;20036;-64
2023/03/06 01:01:13;;;;;;;387.05;147.40;;;-0.90;99.90;;;;;;5015855;28;20112;-64
2023/03/06 01:03:39;;;;;;;391.88;148.98;;;-1.00;99.90;;;;;;5016061;28;20084;-63
2023/03/06 01:06:06;;;;;;;392.13;152.23;;;-1.00;99.90;;;;;;5016241;28;20645;-64
2023/03/06 01:08:34;;;;;;;426.05;164.70;;;-0.90;99.90;;;;;;5016123;28;20045;-64
2023/03/06 01:11:00;;;;;;;396.60;158.05;;;-1.00;99.90;;;;;;5015935;28;20465;-64
2023/03/06 01:13:26;;;;;;;367.15;151.15;;;-0.90;99.90;;;;;;5014605;28;20555;-63
2023/03/06 01:15:52;;;;;;;302.02;128.27;;;-1.00;99.90;;;;;;5016036;28;20062;-64
2023/03/06 01:18:20;;;;;;;297.67;128.45;;;-1.00;99.90;;;;;;5014466;28;20026;-63
2023/03/06 01:20:46;;;;;;;317.00;137.13;;;-1.00;99.90;;;;;;5015804;28;20028;-63
2023/03/06 01:23:12;;;;;;;346.80;144.10;;;-1.00;99.90;;;;;;5015653;28;20038;-63
2023/03/06 01:25:38;;;;;;;327.00;139.88;;;-1.10;99.90;;;;;;5014447;28;20034;-64
2023/03/06 01:28:04;;;;;;;355.95;149.25;;;-1.10;99.90;;;;;;5015753;28;20030;-64
2023/03/06 01:30:30;;;;;;;409.58;177.73;;;-1.10;99.90;;;;;;5014494;28;20030;-63
2023/03/06 01:32:55;;;;;;;413.60;174.15;;;-1.10;99.90;;;;;;5015653;28;20079;-63
2023/03/06 01:35:21;;;;;;;391.35;163.52;;;-1.20;99.90;;;;;;5015620;28;20030;-63
2023/03/06 01:37:47;;;;;;;393.50;165.90;;;-1.10;99.90;;;;;;5016036;28;20099;-64
2023/03/06 01:40:13;;;;;;;367.38;152.15;;;-1.10;99.90;;;;;;5017671;28;20038;-64
2023/03/06 01:42:39;;;;;;;352.25;147.07;;;-1.10;99.90;;;;;;5029142;28;20049;-63
2023/03/06 01:45:12;;;;;;;339.80;142.07;;;-1.10;99.90;;;;;;5035362;28;20459;-63
2023/03/06 01:47:38;;;;;;;325.75;139.57;;;-1.10;99.90;;;;;;5035097;28;20033;-63
2023/03/06 01:50:09;;;;;;;332.92;143.65;;;-1.10;99.90;;;;;;5035228;28;20026;-64
2023/03/06 01:52:49;;;;;;;336.95;144.45;;;-1.20;99.90;;;;;;5017326;28;20120;-63
2023/03/06 01:55:20;;;;;;;291.17;125.57;;;-1.30;99.90;;;;;;5017254;28;20102;-63
2023/03/06 01:57:49;;;;;;;;;;;-1.30;99.90;;;;;;5035414;28;20029;-64
2023/03/06 02:00:20;;;;;;;218.90;95.93;;;-1.30;99.90;;;;;;5017216;28;19916;-63
2023/03/06 02:02:55;;;;;;;211.60;90.63;;;-1.20;99.90;;;;;;5034869;28;20116;-63
2023/03/06 02:05:22;;;;;;;205.88;93.95;;;-1.20;99.90;;;;;;5034829;28;20075;-63
2023/03/06 02:07:49;;;;;;;251.98;109.00;;;-1.30;99.90;;;;;;5017011;28;20044;-63
2023/03/06 02:10:17;;;;;;;251.70;110.22;;;-1.30;99.90;;;;;;5034730;28;20383;-63
2023/03/06 02:12:44;;;;;;;263.42;117.40;;;-1.30;99.90;;;;;;5017031;28;20121;-63
2023/03/06 02:15:16;;;;;;;206.15;95.03;;;-1.30;99.90;;;;;;5016496;28;20044;-62
2023/03/06 02:17:43;;;;;;;181.40;80.38;;;-1.30;99.90;;;;;;5034578;28;20068;-63
2023/03/06 02:20:14;;;;;;;173.45;80.00;;;-1.20;99.90;;;;;;5034632;28;20025;-63
2023/03/06 02:22:53;;;;;;;179.55;84.75;;;-1.20;99.90;;;;;;5034621;28;20036;-63
2023/03/06 02:25:40;;;;;;;179.57;84.43;;;-1.20;99.90;;;;;;5034532;28;20044;-63
2023/03/06 02:28:10;;;;;;;188.30;89.63;;;-1.30;99.90;;;;;;5016936;28;20025;-63
2023/03/06 02:30:39;;;;;;;184.15;85.97;;;-1.40;99.90;;;;;;5034453;28;20022;-63
2023/03/06 02:33:05;;;;;;;189.15;85.10;;;-1.40;99.90;;;;;;5034536;28;20776;-63
2023/03/06 02:35:34;;;;;;;179.75;83.43;;;-1.30;99.90;;;;;;5016773;28;20341;-63
2023/03/06 02:38:12;;;;;;;172.18;81.78;;;-1.40;99.90;;;;;;5036823;28;20029;-63
2023/03/06 02:40:40;;;;;;;164.60;75.13;;;-1.50;99.90;;;;;;5034315;28;20029;-62
2023/03/06 02:43:07;;;;;;;176.65;82.70;;;-1.50;99.90;;;;;;5016545;28;20084;-63
2023/03/06 02:45:37;;;;;;;194.35;87.05;;;-1.60;99.90;;;;;;5016651;28;20115;-63
2023/03/06 02:48:04;;;;;;;240.73;97.70;;;-1.50;99.90;;;;;;5034598;28;20030;-63
2023/03/06 02:50:30;;;;;;;244.48;97.68;;;-1.60;99.90;;;;;;5016471;28;20041;-63
2023/03/06 02:52:56;;;;;;;334.48;120.45;;;-1.50;99.90;;;;;;5016486;28;20104;-62
2023/03/06 02:55:23;;;;;;;315.95;120.45;;;-1.40;99.90;;;;;;5016534;28;20403;-63
2023/03/06 02:57:49;;;;;;;298.73;116.43;;;-1.30;99.90;;;;;;5016455;28;20087;-63
2023/03/06 03:00:16;;;;;;;286.25;108.07;;;-1.20;99.90;;;;;;5016559;28;20116;-62
2023/03/06 03:02:43;;;;;;;283.55;107.18;;;-1.10;99.90;;;;;;5016477;28;20033;-63
2023/03/06 03:05:09;;;;;;;246.68;98.63;;;-1.10;99.90;;;;;;5034016;28;20095;-63
2023/03/06 03:07:38;;;;;;;243.35;97.22;;;-1.20;99.90;;;;;;5016364;28;20025;-63
2023/03/06 03:10:05;;;;;;;230.85;91.30;;;-1.20;99.90;;;;;;5016302;28;20494;-63
2023/03/06 03:12:32;;;;;;;234.15;93.55;;;-1.00;99.90;;;;;;5016378;28;20045;-63
2023/03/06 03:14:58;;;;;;;232.18;96.43;;;-0.90;99.90;;;;;;5016319;28;20041;-63
2023/03/06 03:17:24;;;;;;;226.25;91.88;;;-0.90;99.90;;;;;;5034029;28;20460;-63
2023/03/06 03:19:50;;;;;;;229.55;96.30;;;-0.90;99.90;;;;;;5016219;28;20033;-64
2023/03/06 03:22:17;;;;;;;223.27;92.20;;;-1.10;99.90;;;;;;5016283;28;20030;-63
2023/03/06 03:24:43;;;;;;;223.75;93.65;;;-1.20;99.90;;;;;;5034644;28;20502;-63
2023/03/06 03:27:10;;;;;;;210.10;89.93;;;-1.30;99.90;;;;;;5037835;28;20017;-63
2023/03/06 03:29:36;;;;;;;212.27;89.40;;;-1.40;99.90;;;;;;5037737;28;20022;-63
2023/03/06 03:32:03;;;;;;;195.10;82.10;;;-1.50;99.90;;;;;;5019971;28;20029;-63
2023/03/06 03:34:29;;;;;;;198.32;84.72;;;-1.40;99.90;;;;;;5019847;28;20088;-64
2023/03/06 03:36:56;;;;;;;198.95;86.70;;;-1.40;99.90;;;;;;5019901;28;20037;-63
2023/03/06 03:39:22;;;;;;;189.10;81.10;;;-1.50;99.90;;;;;;5052402;28;20028;-63
2023/03/06 03:41:48;;;;;;;180.15;80.20;;;-1.60;99.90;;;;;;5057319;28;20041;-63
2023/03/06 03:44:15;;;;;;;183.95;79.53;;;-1.60;99.90;;;;;;5039520;28;20036;-63
2023/03/06 03:46:41;;;;;;;173.90;76.85;;;-1.70;99.90;;;;;;5039447;28;20032;-63
2023/03/06 03:49:12;;;;;;;197.90;84.85;;;-1.70;99.90;;;;;;5055993;28;20029;-63
2023/03/06 03:51:38;;;;;;;206.15;82.80;;;-1.60;99.90;;;;;;5057366;28;20392;-63
2023/03/06 03:54:05;;;;;;;209.98;91.20;;;-1.60;99.90;;;;;;5057394;28;20021;-63
2023/03/06 03:56:36;;;;;;;209.07;89.18;;;-1.60;99.90;;;;;;5039300;28;20094;-63
2023/03/06 03:59:09;;;;;;;184.25;81.20;;;-1.70;99.90;;;;;;5039239;28;20029;-63
2023/03/06 04:01:42;;;;;;;213.43;93.95;;;-1.70;99.90;;;;;;5039166;28;20037;-63
2023/03/06 04:04:11;;;;;;;200.32;90.93;;;-1.70;99.90;;;;;;5039220;28;20427;-63
2023/03/06 04:06:38;;;;;;;202.95;86.22;;;-1.70;99.90;;;;;;5039075;28;20036;-62
2023/03/06 04:09:04;;;;;;;202.75;86.25;;;-1.70;99.90;;;;;;5039321;28;20039;-63
2023/03/06 04:11:32;;;;;;;201.02;85.95;;;-1.60;99.90;;;;;;5039081;28;20378;-62
2023/03/06 04:13:58;;;;;;;218.75;86.03;;;-1.60;99.90;;;;;;5038788;28;20028;-63
2023/03/06 04:16:24;;;;;;;189.15;82.05;;;-1.60;99.90;;;;;;5038809;28;20025;-63
2023/03/06 04:18:50;;;;;;;186.68;79.35;;;-1.70;99.90;;;;;;5038985;28;20448;-62
2023/03/06 04:21:16;;;;;;;159.23;72.28;;;-1.70;99.90;;;;;;5038904;28;20090;-63
2023/03/06 04:23:43;;;;;;;170.60;73.88;;;-1.70;99.90;;;;;;5056589;28;20151;-62
2023/03/06 04:26:09;;;;;;;181.95;77.00;;;-1.80;99.90;;;;;;5056593;28;20049;-62
2023/03/06 04:28:35;;;;;;;180.50;77.07;;;-1.90;99.90;;;;;;5038632;28;20533;-62
2023/03/06 04:31:01;;;;;;;162.55;69.88;;;-1.90;99.90;;;;;;5038534;28;20048;-63
2023/03/06 04:33:28;;;;;;;209.52;79.13;;;-1.90;99.90;;;;;;5055250;28;20021;-62
2023/03/06 04:35:54;;;;;;;218.65;84.53;;;-1.80;99.90;;;;;;5056366;28;20093;-63
2023/03/06 04:38:26;;;;;;;198.32;80.43;;;-1.80;99.90;;;;;;5033970;28;20597;-62
2023/03/06 04:40:51;;;;;;;179.82;77.78;;;-1.80;99.90;;;;;;5056342;28;20409;-63
2023/03/06 04:43:17;;;;;;;166.85;73.30;;;-1.90;99.90;;;;;;5056142;28;20120;-63
2023/03/06 04:45:43;;;;;;;152.48;69.20;;;-2.00;99.90;;;;;;5056431;28;20060;-62
2023/03/06 04:48:13;;;;;;;173.00;72.93;;;-2.00;99.90;;;;;;5056256;28;20029;-63
2023/03/06 04:50:39;;;;;;;215.18;84.05;;;-1.90;99.90;;;;;;5056221;28;20029;-62
2023/03/06 04:53:07;;;;;;;206.15;84.05;;;-1.80;99.90;;;;;;5055993;28;20029;-63
2023/03/06 04:55:33;;;;;;;189.10;75.15;;;-1.80;99.90;;;;;;5056068;28;20108;-63
2023/03/06 04:57:59;;;;;;;186.77;74.28;;;-1.80;99.90;;;;;;5055878;28;20510;-63
2023/03/06 05:00:29;;;;;;;207.68;80.35;;;-1.80;99.90;;;;;;5055910;28;20041;-62
2023/03/06 05:02:57;;;;;;;216.67;81.57;;;-1.90;99.90;;;;;;5055939;28;20078;-63
2023/03/06 05:05:22;;;;;;;223.05;83.90;;;-2.00;99.90;;;;;;5055926;28;20025;-62
2023/03/06 05:07:48;;;;;;;237.98;85.45;;;-2.00;99.90;;;;;;5055885;28;20232;-63
2023/03/06 05:10:17;;;;;;;220.27;83.35;;;-2.10;99.90;;;;;;5055816;28;20029;-63
2023/03/06 05:12:43;;;;;;;220.85;84.30;;;-2.10;99.90;;;;;;5055736;28;20052;-63
2023/03/06 05:15:11;;;;;;;209.00;83.35;;;-2.10;99.90;;;;;;5055739;28;20095;-63
2023/03/06 05:17:37;;;;;;;207.00;80.75;;;-2.10;99.90;;;;;;5055612;28;20364;-62
2023/03/06 05:20:08;;;;;;;196.20;82.40;;;-2.10;99.90;;;;;;5055588;28;20108;-63
2023/03/06 05:22:34;;;;;;;;;;;-2.20;99.90;;;;;;5056214;28;20074;-62
2023/03/06 05:25:00;;;;;;;168.23;71.45;;;-2.10;99.90;;;;;;5055277;28;19913;-63
2023/03/06 05:27:27;;;;;;;165.50;74.65;;;-1.90;99.90;;;;;;5055398;28;20548;-63
2023/03/06 05:29:53;;;;;;;157.48;69.35;;;-1.90;99.90;;;;;;5055447;28;20028;-62
2023/03/06 05:32:20;;;;;;;182.52;77.60;;;-2.00;99.90;;;;;;5055348;28;20047;-63
2023/03/06 05:34:46;;;;;;;238.90;90.50;;;-1.90;99.90;;;;;;5055190;28;20037;-62
2023/03/06 05:37:12;;;;;;;240.18;89.85;;;-1.90;99.90;;;;;;5055289;28;20032;-62
2023/03/06 05:39:38;;;;;;;224.98;85.05;;;-1.90;99.90;;;;;;5051105;28;20112;-62
2023/03/06 05:42:04;;;;;;;202.98;82.65;;;-1.70;99.90;;;;;;5055058;28;20071;-62
2023/03/06 05:44:32;;;;;;;210.10;85.38;;;-1.40;99.90;;;;;;5055255;28;20142;-63
2023/03/06 05:46:58;;;;;;;270.15;103.22;;;-1.10;99.90;;;;;;5055128;28;20406;-62
2023/03/06 05:49:24;;;;;;;325.90;110.82;;;-0.90;99.90;;;;;;5054138;28;20032;-62
2023/03/06 05:51:50;;;;;;;261.27;96.97;;;-0.70;99.90;;;;;;5054825;28;20034;-62
2023/03/06 05:54:16;;;;;;;236.23;92.15;;;-0.20;99.90;;;;;;5054962;28;20029;-62
2023/03/06 05:56:42;;;;;;;215.43;85.38;;;-0.10;99.90;;;;;;5054942;28;20380;-62
2023/03/06 05:59:08;;;;;;;197.85;83.78;;;0.00;99.90;;;;;;5055040;28;20028;-62
2023/03/06 06:01:34;;;;;;;228.30;96.70;;;0.40;99.90;;;;;;5054950;28;20021;-62
2023/03/06 06:03:59;;;;;;;218.32;93.85;;;1.20;99.90;;;;;;5054801;28;20092;-62
2023/03/06 06:06:25;;;;;;;194.45;87.07;;;1.80;99.90;;;;;;5054571;28;20063;-62
2023/03/06 06:08:51;;;;;;;226.40;98.85;;;2.10;99.90;;;;;;5054632;28;20031;-62
2023/03/06 06:11:19;;;;;;;241.70;103.40;;;2.50;99.90;;;;;;5054520;28;20024;-62
2023/03/06 06:13:47;;;;;;;219.07;94.57;;;2.70;99.90;;;;;;5054682;28;20059;-62
2023/03/06 06:16:15;;;;;;;209.65;94.30;;;2.60;99.90;;;;;;5054139;28;20032;-62
2023/03/06 06:18:41;;;;;;;199.07;90.43;;;2.40;99.90;;;;;;5054187;28;20564;-62
2023/03/06 06:21:09;;;;;;;196.60;90.63;;;2.40;99.90;;;;;;5037041;28;20044;-62
2023/03/06 06:23:35;;;;;;;197.10;90.97;;;2.30;99.90;;;;;;5055007;28;20043;-63
2023/03/06 06:26:04;;;;;;;190.05;87.95;;;2.40;99.90;;;;;;5053901;28;20033;-62
2023/03/06 06:28:30;;;;;;;198.68;91.38;;;2.70;99.90;;;;;;5052672;28;20513;-62
2023/03/06 06:30:56;;;;;;;214.63;99.18;;;2.60;99.90;;;;;;5054049;28;20052;-63
2023/03/06 06:33:23;;;;;;;213.35;96.93;;;3.00;99.90;;;;;;5047380;28;20454;-63
2023/03/06 06:35:50;;;;;;;203.98;98.25;;;3.20;99.90;;;;;;5037233;28;20059;-62
2023/03/06 06:38:16;;;;;;;220.80;97.47;;;3.50;99.90;;;;;;5043683;28;20087;-62
2023/03/06 06:40:43;;;;;;;238.05;102.82;;;3.40;99.90;;;;;;5045947;28;20474;-63
2023/03/06 06:43:10;;;;;;;214.85;99.63;;;3.80;99.90;;;;;;5027588;28;20053;-63
2023/03/06 06:45:36;;;;;;;199.73;97.15;;;4.30;99.90;;;;;;5039418;28;20116;-63
2023/03/06 06:48:06;;;;;;;207.35;98.32;;;4.50;99.90;;;;;;5069571;28;20024;-63
2023/03/06 06:50:32;;;;;;;220.27;100.88;;;4.60;99.90;;;;;;5055419;28;20029;-63
2023/03/06 06:52:58;;;;;;;220.88;104.20;;;4.20;99.90;;;;;;5047413;28;20025;-63
2023/03/06 06:55:23;;;;;;;217.75;101.82;;;4.70;99.90;;;;;;5054013;28;20055;-63
2023/03/06 06:57:49;;;;;;;222.43;103.18;;;4.80;99.90;;;;;;5051173;28;20140;-63
2023/03/06 07:00:16;;;;;;;252.57;113.53;;;5.10;99.90;;;;;;5044015;28;20041;-63
2023/03/06 07:02:42;;;;;;;238.25;109.75;;;5.30;99.90;;;;;;5036919;28;20032;-64
2023/03/06 07:05:11;;;;;;;235.15;112.82;;;5.40;99.90;;;;;;5038677;28;20022;-64
2023/03/06 07:07:37;;;;;;;254.07;121.60;;;5.50;99.90;;;;;;5057118;28;20017;-64
2023/03/06 07:10:14;;;;;;;267.75;125.43;;;5.70;99.90;;;;;;5057371;28;20419;-64
2023/03/06 07:12:43;;;;;;;254.57;122.22;;;5.60;99.90;;;;;;5057658;28;20021;-64
2023/03/06 07:15:15;;;;;;;246.38;120.13;;;6.10;99.90;;;;;;5057673;28;20025;-64
2023/03/06 07:17:41;;;;;;;232.23;117.75;;;6.20;99.90;;;;;;5047167;28;20091;-64
2023/03/06 07:20:09;;;;;;;249.40;120.05;;;6.60;99.90;;;;;;5039065;28;20041;-64
2023/03/06 07:22:36;;;;;;;254.65;120.28;;;7.30;99.90;;;;;;5050297;28;20059;-65
2023/03/06 07:25:04;;;;;;;231.43;121.15;;;7.60;99.90;;;;;;5045775;28;20033;-65
2023/03/06 07:27:33;;;;;;;238.80;122.82;;;7.90;99.90;;;;;;5046130;28;20018;-65
2023/03/06 07:29:59;;;;;;;227.20;114.60;;;8.20;99.90;;;;;;5059340;28;20025;-65
2023/03/06 07:32:25;;;;;;;203.60;106.57;;;8.40;99.90;;;;;;5052085;28;20084;-65
2023/03/06 07:34:51;;;;;;;191.10;99.53;;;8.20;99.90;;;;;;5053601;28;20067;-65
2023/03/06 07:37:17;;;;;;;180.48;91.03;;;8.40;99.90;;;;;;5053673;28;20463;-65
2023/03/06 07:39:43;;;;;;;179.40;86.97;;;7.90;99.90;;;;;;5054757;28;20150;-65
2023/03/06 07:42:12;;;;;;;179.55;88.78;;;7.90;99.90;;;;;;5055324;28;20029;-65
2023/03/06 07:44:48;;;;;;;183.55;87.70;;;8.20;99.90;;;;;;5039699;28;20052;-65
2023/03/06 07:47:14;;;;;;;167.50;84.32;;;8.60;99.90;;;;;;5057687;28;20056;-66
2023/03/06 07:49:40;;;;;;;162.95;86.57;;;9.00;99.90;;;;;;5054741;28;20358;-65
2023/03/06 07:52:06;;;;;;;149.75;79.38;;;8.50;99.90;;;;;;5055274;28;20020;-65
2023/03/06 07:54:34;;;;;;;160.93;81.72;;;9.00;99.90;;;;;;5056777;28;20071;-65
2023/03/06 07:57:00;;;;;;;184.23;87.30;;;9.50;99.90;;;;;;5056738;28;20505;-65
2023/03/06 07:59:25;;;;;;;161.48;84.80;;;9.60;99.90;;;;;;5055684;28;20025;-65
2023/03/06 08:01:54;;;;;;;185.98;91.50;;;9.90;99.90;;;;;;5052641;28;20043;-66
2023/03/06 08:04:20;;;;;;;176.70;90.13;;;10.10;99.90;;;;;;5049358;28;20064;-66
2023/03/06 08:06:46;;;;;;;202.98;95.38;;;10.50;99.90;;;;;;5056183;28;20129;-66
2023/03/06 08:09:12;;;;;;;201.65;95.55;;;10.60;99.90;;;;;;5057616;28;20025;-66
2023/03/06 08:11:38;;;;;;;201.30;96.82;;;11.00;99.90;;;;;;5056399;28;20036;-66
2023/03/06 08:14:04;;;;;;;200.57;96.90;;;11.60;99.90;;;;;;5058445;28;20056;-66
2023/03/06 08:16:30;;;;;;;184.73;92.35;;;11.20;99.90;;;;;;5055216;28;20056;-66
2023/03/06 08:18:56;;;;;;;193.82;94.07;;;11.80;99.90;;;;;;5036945;28;20033;-66
2023/03/06 08:21:25;;;;;;;207.43;97.38;;;11.80;99.90;;;;;;5057494;28;20108;-66
2023/03/06 08:23:52;;;;;;;197.55;94.03;;;12.10;99.90;;;;;;5055139;28;20021;-66
2023/03/06 08:26:21;;;;;;;191.40;89.85;;;12.30;99.90;;;;;;5059958;28;20032;-66
2023/03/06 08:28:46;;;;;;;196.40;95.78;;;11.60;99.90;;;;;;5053984;28;20056;-66
2023/03/06 08:31:36;;;;;;;187.95;92.30;;;11.60;99.90;;;;;;5059397;28;20035;-66
2023/03/06 08:34:05;;;;;;;170.80;90.40;;;11.30;99.90;;;;;;5052506;28;20544;-66
2023/03/06 08:36:31;;;;;;;158.90;82.63;;;11.00;99.90;;;;;;5047674;28;20033;-66
2023/03/06 08:38:57;;;;;;;143.13;75.22;;;11.00;99.90;;;;;;5055840;28;20072;-66
2023/03/06 08:41:24;;;;;;;147.52;74.18;;;11.00;99.90;;;;;;5055641;28;20041;-66
2023/03/06 08:43:52;;;;;;;137.25;71.22;;;10.70;99.90;;;;;;5053685;28;20040;-66
2023/03/06 08:46:21;;;;;;;129.95;70.22;;;10.70;99.90;;;;;;5051163;28;20024;-66
2023/03/06 08:48:47;;;;;;;139.13;71.88;;;10.50;99.90;;;;;;5055882;28;20032;-66
2023/03/06 08:51:14;;;;;;;124.13;67.65;;;10.60;99.90;;;;;;5053025;28;20028;-66
2023/03/06 08:53:40;;;;;;;129.38;66.13;;;10.50;99.90;;;;;;5055135;28;20037;-66
2023/03/06 08:56:06;;;;;;;136.65;69.78;;;10.50;99.90;;;;;;5055799;28;20474;-66
2023/03/06 08:58:32;;;;;;;141.85;77.05;;;10.40;99.90;;;;;;5055446;28;20025;-66
2023/03/06 09:00:58;;;;;;;145.75;77.75;;;10.20;99.90;;;;;;5053343;28;20025;-66
2023/03/06 09:03:25;;;;;;;138.88;77.90;;;10.00;99.90;;;;;;5050786;28;20029;-66
2023/03/06 09:05:51;;;;;;;154.20;81.35;;;9.90;99.90;;;;;;5051096;28;20029;-66
2023/03/06 09:08:17;;;;;;;146.40;79.07;;;10.10;99.90;;;;;;5055856;28;20207;-66
2023/03/06 09:10:47;;;;;;;157.75;79.18;;;10.00;99.90;;;;;;5052226;28;20216;-66
2023/03/06 09:13:16;;;;;;;145.83;78.03;;;10.00;99.90;;;;;;5036822;28;20033;-66
2023/03/06 09:15:43;;;;;;;148.90;79.63;;;10.00;99.90;;;;;;5053687;28;20223;-66
2023/03/06 09:18:08;;;;;;;148.10;84.20;;;10.40;99.90;;;;;;5051823;28;20137;-66
2023/03/06 09:20:34;;;;;;;153.13;83.07;;;11.00;99.90;;;;;;5055058;28;20067;-66
2023/03/06 09:23:04;;;;;;;137.30;73.55;;;11.80;99.90;;;;;;5054961;28;20118;-66
2023/03/06 09:25:30;;;;;;;157.68;80.30;;;12.90;99.90;;;;;;5055078;28;20383;-66
2023/03/06 09:28:02;;;;;;;146.52;77.25;;;13.00;99.90;;;;;;5052053;28;20068;-66
2023/03/06 09:30:29;;;;;;;143.35;79.28;;;13.20;99.90;;;;;;5053809;28;20036;-66
2023/03/06 09:32:57;;;;;;;145.43;76.80;;;13.40;99.90;;;;;;5052493;28;20029;-66
2023/03/06 09:35:23;;;;;;;143.32;75.18;;;13.70;99.90;;;;;;5054335;28;20367;-66
2023/03/06 09:37:49;;;;;;;147.85;77.25;;;13.90;99.90;;;;;;5054161;28;20090;-66
2023/03/06 09:40:41;;;;;;;134.45;75.82;;;14.20;99.90;;;;;;5049234;28;20032;-66
2023/03/06 09:43:18;;;;;;;130.23;73.45;;;13.80;99.90;;;;;;5051855;28;20100;-66
2023/03/06 09:45:44;;;;;;;138.32;77.10;;;14.10;99.90;;;;;;5060642;28;20119;-66
2023/03/06 09:48:13;;;;;;;141.85;75.95;;;14.40;99.90;;;;;;5058426;28;20033;-66
2023/03/06 09:50:50;;;;;;;135.45;72.35;;;14.50;99.90;;;;;;5044878;28;20049;-66
2023/03/06 09:53:41;;;;;;;129.85;72.85;;;15.20;99.90;;;;;;5037796;28;20371;-66
2023/03/06 09:56:29;;;;;;;;;;;16.40;99.90;;;;;;5048520;28;20037;-67
2023/03/06 09:59:11;;;;;;;120.18;64.45;;;16.70;99.90;;;;;;5046672;28;19923;-67
2023/03/06 10:01:44;;;;;;;131.23;66.00;;;16.30;99.90;;;;;;5040214;28;20032;-67
2023/03/06 10:04:35;;;;;;;127.47;64.57;;;15.90;99.90;;;;;;5043652;28;20029;-66
2023/03/06 10:07:22;;;;;;;140.82;68.47;;;15.90;99.90;;;;;;5057927;28;20036;-67
2023/03/06 10:10:03;;;;;;;115.13;61.47;;;15.60;99.90;;;;;;5074579;28;20028;-67
2023/03/06 10:12:42;;;;;;;108.55;59.67;;;15.90;99.90;;;;;;5074386;28;20029;-67
2023/03/06 10:15:16;;;;;;;118.70;59.40;;;16.40;99.90;;;;;;5074958;28;20040;-67
2023/03/06 10:17:46;;;;;;;97.60;53.78;;;16.60;99.90;;;;;;5074304;28;20032;-67
2023/03/06 10:20:25;;;;;;;112.57;55.40;;;16.50;99.90;;;;;;5074476;28;20226;-67
2023/03/06 10:23:15;;;;;;;98.07;52.42;;;17.00;99.90;;;;;;5047315;28;20017;-68
2023/03/06 10:25:40;;;;;;;89.05;50.13;;;17.50;99.90;;;;;;5034432;28;20029;-67
2023/03/06 10:28:18;;;;;;;94.55;49.97;;;17.60;99.90;;;;;;5033695;28;20028;-67
2023/03/06 10:31:10;;;;;;;90.38;46.90;;;17.40;99.90;;;;;;5034294;28;20071;-68
2023/03/06 10:33:47;;;;;;;75.15;43.38;;;17.40;99.90;;;;;;5053948;28;20032;-68
2023/03/06 10:36:18;;;;;;;85.97;47.83;;;16.90;99.90;;;;;;5044355;28;20082;-68
2023/03/06 10:38:47;;;;;;;81.90;44.55;;;16.50;99.90;;;;;;5050482;28;20395;-68
2023/03/06 10:41:13;;;;;;;71.53;38.55;;;16.60;99.90;;;;;;5066966;28;20021;-68
2023/03/06 10:43:43;;;;;;;86.65;42.63;;;16.60;99.90;;;;;;5074305;28;20040;-68
2023/03/06 10:46:12;;;;;;;67.20;36.83;;;17.00;99.90;;;;;;5063733;28;20032;-68
2023/03/06 10:48:40;;;;;;;76.18;39.50;;;17.30;99.90;;;;;;5052150;28;20094;-68
2023/03/06 10:51:22;;;;;;;68.78;37.70;;;17.20;99.90;;;;;;5054806;28;20037;-68
2023/03/06 10:54:07;;;;;;;58.75;33.35;;;16.90;99.90;;;;;;5051873;28;20040;-68
2023/03/06 10:56:47;;;;;;;63.85;35.70;;;17.30;99.90;;;;;;5053810;28;20044;-68
2023/03/06 10:59:18;;;;;;;76.75;38.63;;;17.20;99.90;;;;;;5052972;28;20170;-68
2023/03/06 11:01:47;;;;;;;69.72;36.63;;;16.40;99.90;;;;;;5050017;28;20040;-68
2023/03/06 11:04:25;;;;;;;73.40;38.80;;;16.80;99.90;;;;;;5053697;28;20211;-68
2023/03/06 11:07:13;;;;;;;77.22;38.63;;;16.50;99.90;;;;;;5041929;28;20033;-68
2023/03/06 11:09:41;;;;;;;62.35;32.95;;;16.30;99.90;;;;;;5042977;28;20071;-68
2023/03/06 11:12:21;;;;;;;72.78;37.00;;;16.40;99.90;;;;;;5049054;28;20628;-68
2023/03/06 11:15:08;;;;;;;58.05;33.00;;;16.50;99.90;;;;;;5047660;28;20029;-68
2023/03/06 11:17:49;;;;;;;57.03;32.50;;;16.40;99.90;;;;;;5068697;28;20024;-68
2023/03/06 11:20:18;;;;;;;;;;;16.30;99.90;;;;;;5075102;28;20017;-68
2023/03/06 11:23:08;;;;;;;60.42;33.65;;;16.40;99.90;;;;;;5074502;28;19912;-68
2023/03/06 11:25:42;;;;;;;61.28;34.55;;;16.80;99.90;;;;;;5074644;28;20119;-68
2023/03/06 11:28:47;;;;;;;63.45;35.45;;;17.40;99.90;;;;;;5073460;28;20025;-68
2023/03/06 11:31:19;;;;;;;60.30;33.38;;;17.30;99.90;;;;;;5061170;28;20021;-68
2023/03/06 11:33:51;;;;;;;52.17;30.63;;;17.30;99.90;;;;;;5066581;28;20032;-68
2023/03/06 11:36:32;;;;;;;42.10;25.92;;;17.30;99.90;;;;;;5073424;28;20078;-68
2023/03/06 11:39:01;;;;;;;44.40;25.10;;;17.10;99.90;;;;;;5063382;28;20423;-68
2023/03/06 11:41:36;;;;;;;46.88;27.95;;;16.90;99.90;;;;;;5053164;28;20041;-68
2023/03/06 11:44:45;;;;;;;50.42;28.83;;;16.70;99.90;;;;;;5067112;28;20513;-68
2023/03/06 11:47:41;;;;;;;49.08;29.42;;;16.60;99.90;;;;;;5062515;28;20059;-68
2023/03/06 11:50:35;;;;;;;50.80;25.20;;;16.70;99.90;;;;;;5044153;28;20037;-68
2023/03/06 11:53:09;;;;;;;43.38;24.30;;;16.50;99.90;;;;;;5053876;28;20451;-68
2023/03/06 11:56:13;;;;;;;41.10;22.40;;;16.40;99.90;;;;;;5073911;28;20090;-68
2023/03/06 11:58:53;;;;;;;32.00;16.10;;;16.40;99.90;;;;;;5059962;28;20039;-68
2023/03/06 12:01:32;;;;;;;34.83;17.33;;;16.20;99.90;;;;;;5051543;28;20029;-68
2023/03/06 12:04:01;;;;;;;23.98;10.57;;;16.20;99.90;;;;;;5035880;28;20090;-68
2023/03/06 12:06:52;;;;;;;25.77;10.85;;;16.10;99.90;;;;;;5051472;28;20057;-68
2023/03/06 12:09:47;;;;;;;21.92;9.30;;;15.90;99.90;;;;;;5053715;28;20087;-68
2023/03/06 12:12:20;;;;;;;17.20;9.88;;;15.70;99.90;;;;;;5047930;28;20495;-68
2023/03/06 12:14:46;;;;;;;24.75;13.63;;;15.50;99.90;;;;;;5056346;28;20394;-68
2023/03/06 12:17:30;;;;;;;25.33;14.18;;;15.40;99.90;;;;;;5056443;28;20035;-68
2023/03/06 12:20:15;;;;;;;18.48;9.25;;;15.50;99.90;;;;;;5056494;28;20051;-67
2023/03/06 12:22:41;;;;;;;32.83;16.35;;;15.50;99.90;;;;;;5056622;28;20033;-67
2023/03/06 12:25:24;;;;;;;22.63;11.35;;;15.50;99.90;;;;;;5055533;28;20028;-68
2023/03/06 12:28:07;;;;;;;30.15;12.50;;;15.60;99.90;;;;;;5056343;28;20036;-67
2023/03/06 12:30:58;;;;;;;21.08;8.90;;;15.30;99.90;;;;;;5055880;28;20462;-67
2023/03/06 12:34:07;;;;;;;34.50;13.20;;;15.30;99.90;;;;;;5055963;28;20028;-67